createdAt,value
2022-07-31T00:00:33.587Z,94.10
2022-07-31T00:01:33.590Z,94.55
2022-07-31T00:02:33.591Z,94.45
2022-07-31T00:03:33.635Z,94.65
2022-07-31T00:04:33.593Z,95.05
2022-07-31T00:05:41.523Z,94.95
2022-07-31T00:06:33.594Z,95.15
2022-07-31T00:07:33.599Z,94.45
2022-07-31T00:09:48.921Z,94.55
2022-07-31T00:10:16.150Z,94.35
2022-07-31T00:11:16.150Z,94.65
2022-07-31T00:12:16.149Z,94.55
2022-07-31T00:13:16.148Z,94.55
2022-07-31T00:14:16.152Z,94.35
2022-07-31T00:15:16.154Z,94.59
2022-07-31T00:16:17.291Z,94.70
2022-07-31T00:17:16.158Z,95.00
2022-07-31T00:18:18.783Z,95.15
2022-07-31T00:19:16.163Z,95.45
2022-07-31T00:21:18.750Z,94.59
2022-07-31T00:22:18.749Z,95.00
2022-07-31T00:23:19.050Z,95.00
2022-07-31T00:24:18.752Z,95.30
2022-07-31T00:25:18.760Z,95.50
2022-07-31T00:26:18.751Z,95.20
2022-07-31T00:27:18.759Z,94.79
2022-07-31T00:28:18.758Z,94.70
2022-07-31T00:29:18.759Z,95.14
2022-07-31T00:30:18.760Z,95.04
2022-07-31T00:31:18.766Z,94.90
2022-07-31T00:32:18.768Z,95.04
2022-07-31T00:33:18.765Z,95.00
2022-07-31T00:34:18.781Z,95.14
2022-07-31T00:35:18.769Z,94.49
2022-07-31T00:36:18.771Z,95.00
2022-07-31T00:37:18.776Z,94.70
2022-07-31T00:38:34.192Z,95.00
2022-07-31T00:39:18.778Z,94.70
2022-07-31T00:42:44.639Z,94.64
2022-07-31T00:43:44.629Z,94.70
2022-07-31T00:44:44.636Z,94.49
2022-07-31T00:45:44.639Z,94.70
2022-07-31T00:46:44.638Z,95.04
2022-07-31T00:47:44.637Z,94.74
2022-07-31T00:48:44.713Z,95.10
2022-07-31T00:50:27.186Z,95.40
2022-07-31T00:55:56.389Z,95.54
2022-07-31T00:56:56.388Z,95.44
2022-07-31T00:57:56.396Z,95.64
2022-07-31T00:58:56.392Z,96.09
2022-07-31T00:59:56.392Z,97.00
2022-07-31T01:00:56.456Z,97.00
2022-07-31T01:01:56.398Z,96.15
2022-07-31T01:02:56.396Z,95.54
2022-07-31T01:03:56.398Z,96.04
2022-07-31T01:04:56.399Z,96.19
2022-07-31T01:05:56.400Z,95.99
2022-07-31T01:06:56.403Z,96.04
2022-07-31T01:07:56.403Z,96.59
2022-07-31T01:08:56.405Z,96.19
2022-07-31T01:09:56.407Z,96.80
2022-07-31T01:10:56.411Z,97.00
2022-07-31T01:11:56.408Z,96.80
2022-07-31T01:12:56.415Z,97.09
2022-07-31T01:13:56.421Z,96.59
2022-07-31T01:14:56.417Z,97.14
2022-07-31T01:15:56.419Z,97.40
2022-07-31T01:16:56.419Z,97.30
2022-07-31T01:17:56.419Z,97.24
2022-07-31T01:18:56.423Z,97.34
2022-07-31T01:19:56.423Z,97.09
2022-07-31T01:20:56.424Z,97.14
2022-07-31T01:21:56.424Z,96.69
2022-07-31T01:22:56.424Z,96.14
2022-07-31T01:23:56.425Z,96.89
2022-07-31T01:24:56.426Z,97.00
2022-07-31T01:25:56.429Z,96.80
2022-07-31T01:26:56.429Z,97.00
2022-07-31T01:27:56.434Z,96.80
2022-07-31T01:28:56.432Z,96.09
2022-07-31T01:29:56.441Z,96.19
2022-07-31T01:31:17.208Z,96.80
2022-07-31T01:31:56.438Z,96.69
2022-07-31T01:32:56.438Z,97.30
2022-07-31T01:33:56.440Z,97.30
2022-07-31T01:34:56.444Z,97.00
2022-07-31T01:35:56.448Z,96.80
2022-07-31T01:36:56.442Z,97.40
2022-07-31T01:37:56.459Z,97.60
2022-07-31T01:38:56.449Z,97.30
2022-07-31T01:39:56.453Z,97.09
2022-07-31T01:40:56.451Z,96.69
2022-07-31T01:41:56.457Z,97.20
2022-07-31T01:42:56.454Z,96.89
2022-07-31T01:43:56.454Z,96.84
2022-07-31T01:44:56.458Z,96.80
2022-07-31T01:45:56.459Z,97.00
2022-07-31T01:46:56.459Z,96.44
2022-07-31T01:47:56.460Z,96.69
2022-07-31T01:48:56.517Z,95.99
2022-07-31T01:49:56.466Z,96.89
2022-07-31T01:50:56.463Z,96.59
2022-07-31T01:51:56.465Z,96.19
2022-07-31T01:52:56.466Z,97.00
2022-07-31T01:53:56.469Z,96.69
2022-07-31T01:54:56.470Z,96.80
2022-07-31T01:56:03.632Z,97.00
2022-07-31T01:56:56.472Z,96.74
2022-07-31T01:57:56.473Z,96.94
2022-07-31T01:58:56.475Z,96.44
2022-07-31T01:59:56.479Z,96.94
2022-07-31T02:00:56.550Z,96.74
2022-07-31T02:01:56.479Z,96.84
2022-07-31T02:02:56.478Z,96.84
2022-07-31T02:03:56.537Z,97.04
2022-07-31T02:04:56.484Z,96.94
2022-07-31T02:05:56.485Z,96.84
2022-07-31T02:06:56.486Z,96.94
2022-07-31T02:07:56.486Z,96.94
2022-07-31T02:08:56.486Z,96.74
2022-07-31T02:09:58.568Z,96.34
2022-07-31T02:10:56.494Z,96.84
2022-07-31T02:11:56.492Z,96.94
2022-07-31T02:12:56.495Z,96.84
2022-07-31T02:13:56.495Z,97.34
2022-07-31T02:14:56.494Z,97.34
2022-07-31T02:15:56.496Z,96.78
2022-07-31T02:16:56.501Z,97.29
2022-07-31T02:17:56.497Z,97.59
2022-07-31T02:18:56.500Z,97.59
2022-07-31T02:20:00.401Z,97.49
2022-07-31T02:20:56.505Z,97.39
2022-07-31T02:21:56.506Z,97.09
2022-07-31T02:22:56.509Z,97.69
2022-07-31T02:23:56.507Z,97.39
2022-07-31T02:24:56.510Z,97.69
2022-07-31T02:25:56.510Z,97.39
2022-07-31T02:26:56.513Z,97.44
2022-07-31T02:27:58.632Z,97.74
2022-07-31T02:28:56.514Z,97.64
2022-07-31T02:29:56.519Z,97.64
2022-07-31T02:30:56.517Z,98.04
2022-07-31T02:32:02.024Z,97.84
2022-07-31T02:32:56.524Z,97.64
2022-07-31T02:33:56.525Z,97.33
2022-07-31T02:34:56.524Z,97.53
2022-07-31T02:35:56.522Z,97.33
2022-07-31T02:36:56.527Z,97.74
2022-07-31T02:37:56.525Z,97.13
2022-07-31T02:38:56.525Z,97.03
2022-07-31T02:39:56.531Z,97.94
2022-07-31T02:40:56.554Z,97.84
2022-07-31T02:41:56.541Z,97.53
2022-07-31T02:42:56.540Z,97.64
2022-07-31T02:43:56.532Z,98.34
2022-07-31T02:44:56.533Z,97.53
2022-07-31T02:45:56.544Z,97.64
2022-07-31T02:46:56.538Z,97.64
2022-07-31T02:47:56.541Z,97.64
2022-07-31T02:48:56.565Z,97.84
2022-07-31T02:49:56.540Z,97.94
2022-07-31T02:50:56.545Z,97.24
2022-07-31T02:51:56.546Z,97.53
2022-07-31T02:52:56.545Z,97.69
2022-07-31T02:53:56.550Z,97.44
2022-07-31T02:54:56.546Z,97.24
2022-07-31T02:55:56.547Z,97.64
2022-07-31T02:56:56.550Z,97.49
2022-07-31T02:57:56.551Z,97.44
2022-07-31T02:58:56.551Z,97.89
2022-07-31T02:59:56.551Z,97.33
2022-07-31T03:00:56.589Z,97.53
2022-07-31T03:01:56.555Z,97.69
2022-07-31T03:02:56.559Z,97.94
2022-07-31T03:03:56.563Z,97.13
2022-07-31T03:04:56.561Z,97.49
2022-07-31T03:05:56.562Z,97.69
2022-07-31T03:06:56.561Z,97.58
2022-07-31T03:07:56.570Z,97.49
2022-07-31T03:08:56.562Z,97.58
2022-07-31T03:09:56.564Z,97.64
2022-07-31T03:10:56.567Z,98.04
2022-07-31T03:11:56.573Z,98.09
2022-07-31T03:12:56.568Z,97.69
2022-07-31T03:13:56.569Z,97.49
2022-07-31T03:14:56.572Z,97.38
2022-07-31T03:15:56.574Z,97.58
2022-07-31T03:16:56.571Z,97.58
2022-07-31T03:17:56.588Z,97.58
2022-07-31T03:18:56.574Z,97.78
2022-07-31T03:19:56.576Z,97.38
2022-07-31T03:20:56.581Z,97.78
2022-07-31T03:21:56.582Z,97.69
2022-07-31T03:22:56.582Z,97.58
2022-07-31T03:23:56.583Z,97.49
2022-07-31T03:24:56.583Z,97.99
2022-07-31T03:25:56.633Z,97.38
2022-07-31T03:26:56.582Z,97.38
2022-07-31T03:27:56.981Z,97.18
2022-07-31T03:28:56.592Z,97.49
2022-07-31T03:29:56.590Z,98.09
2022-07-31T03:30:56.719Z,98.13
2022-07-31T03:31:56.591Z,98.29
2022-07-31T03:32:56.590Z,98.74
2022-07-31T03:33:56.595Z,99.14
2022-07-31T03:34:56.595Z,98.44
2022-07-31T03:35:56.598Z,99.14
2022-07-31T03:36:56.597Z,98.88
2022-07-31T03:37:56.596Z,99.49
2022-07-31T03:38:56.597Z,99.19
2022-07-31T03:39:56.604Z,99.99
2022-07-31T03:40:56.600Z,99.69
2022-07-31T03:41:56.626Z,99.59
2022-07-31T03:42:56.604Z,99.74
2022-07-31T03:43:56.602Z,99.79
2022-07-31T03:44:56.613Z,99.69
2022-07-31T03:45:56.609Z,99.29
2022-07-31T03:46:56.605Z,99.39
2022-07-31T03:47:56.610Z,99.08
2022-07-31T03:48:56.665Z,99.19
2022-07-31T03:49:56.611Z,99.39
2022-07-31T03:50:56.610Z,99.04
2022-07-31T03:51:56.612Z,98.54
2022-07-31T03:52:56.612Z,98.13
2022-07-31T03:53:56.619Z,98.84
2022-07-31T03:54:56.614Z,99.24
2022-07-31T03:55:56.622Z,98.44
2022-07-31T03:56:56.617Z,98.13
2022-07-31T03:57:56.617Z,98.44
2022-07-31T03:59:56.618Z,98.39
2022-07-31T04:00:56.625Z,97.78
2022-07-31T04:01:58.803Z,97.69
2022-07-31T04:02:56.717Z,97.58
2022-07-31T04:03:56.630Z,97.58
2022-07-31T04:04:56.635Z,97.78
2022-07-31T04:05:56.626Z,97.58
2022-07-31T04:06:56.631Z,97.18
2022-07-31T04:07:56.632Z,96.78
2022-07-31T04:08:56.630Z,98.19
2022-07-31T04:09:56.632Z,98.09
2022-07-31T04:10:56.635Z,97.89
2022-07-31T04:11:56.631Z,97.69
2022-07-31T04:12:56.637Z,98.39
2022-07-31T04:13:56.636Z,98.19
2022-07-31T04:14:56.641Z,98.49
2022-07-31T04:15:56.636Z,98.09
2022-07-31T04:16:56.635Z,98.19
2022-07-31T04:17:56.640Z,98.49
2022-07-31T04:18:56.645Z,98.59
2022-07-31T04:20:56.641Z,98.29
2022-07-31T04:21:56.647Z,98.29
2022-07-31T04:22:56.647Z,98.59
2022-07-31T04:23:56.649Z,98.39
2022-07-31T04:24:56.649Z,98.54
2022-07-31T04:25:56.703Z,98.39
2022-07-31T04:26:56.653Z,97.99
2022-07-31T04:27:56.655Z,97.53
2022-07-31T04:28:56.650Z,97.44
2022-07-31T04:29:56.652Z,97.94
2022-07-31T04:30:56.658Z,98.24
2022-07-31T04:31:56.659Z,98.34
2022-07-31T04:32:56.654Z,98.44
2022-07-31T04:33:57.248Z,98.14
2022-07-31T04:34:56.660Z,98.44
2022-07-31T04:35:56.664Z,98.65
2022-07-31T04:36:56.663Z,99.15
2022-07-31T04:37:56.665Z,98.74
2022-07-31T04:38:56.665Z,98.90
2022-07-31T04:39:56.664Z,98.80
2022-07-31T04:40:56.664Z,98.24
2022-07-31T04:41:56.665Z,98.50
2022-07-31T04:42:56.674Z,98.39
2022-07-31T04:43:56.675Z,98.30
2022-07-31T04:44:56.667Z,98.60
2022-07-31T04:45:56.678Z,97.59
2022-07-31T04:46:56.674Z,97.49
2022-07-31T04:47:56.680Z,98.10
2022-07-31T04:48:56.786Z,97.55
2022-07-31T04:49:56.676Z,97.34
2022-07-31T04:50:56.684Z,97.44
2022-07-31T04:51:56.679Z,97.55
2022-07-31T04:52:56.677Z,97.44
2022-07-31T04:53:56.705Z,97.75
2022-07-31T04:54:56.680Z,97.44
2022-07-31T04:55:56.683Z,97.14
2022-07-31T04:56:56.688Z,97.30
2022-07-31T04:57:56.886Z,97.30
2022-07-31T04:58:56.687Z,97.09
2022-07-31T05:00:56.887Z,97.30
2022-07-31T05:01:56.756Z,96.95
2022-07-31T05:03:56.692Z,97.25
2022-07-31T05:04:57.581Z,97.25
2022-07-31T05:06:56.703Z,97.15
2022-07-31T05:07:56.896Z,97.55
2022-07-31T05:08:56.703Z,96.85
2022-07-31T05:09:56.707Z,96.04
2022-07-31T05:10:56.703Z,96.65
2022-07-31T05:11:56.705Z,97.15
2022-07-31T05:12:56.707Z,97.81
2022-07-31T05:13:56.704Z,97.61
2022-07-31T05:14:56.704Z,97.50
2022-07-31T05:15:56.906Z,97.00
2022-07-31T05:16:56.705Z,96.60
2022-07-31T05:17:56.731Z,96.45
2022-07-31T05:18:56.708Z,96.45
2022-07-31T05:19:56.710Z,96.66
2022-07-31T05:20:56.711Z,96.76
2022-07-31T05:22:01.745Z,95.95
2022-07-31T05:22:56.915Z,96.96
2022-07-31T05:23:56.715Z,94.85
2022-07-31T05:24:56.715Z,96.15
2022-07-31T05:25:56.767Z,96.66
2022-07-31T05:26:56.720Z,97.52
2022-07-31T05:27:56.719Z,97.02
2022-07-31T05:28:58.621Z,97.21
2022-07-31T05:29:56.724Z,96.91
2022-07-31T05:30:56.720Z,96.77
2022-07-31T05:32:00.358Z,97.21
2022-07-31T05:32:56.723Z,97.17
2022-07-31T05:33:56.730Z,96.77
2022-07-31T05:35:56.727Z,97.97
2022-07-31T05:36:56.736Z,97.06
2022-07-31T05:37:56.734Z,98.02
2022-07-31T05:38:56.735Z,98.13
2022-07-31T05:39:56.733Z,98.43
2022-07-31T05:40:56.733Z,97.52
2022-07-31T05:41:56.740Z,97.52
2022-07-31T05:42:56.942Z,97.62
2022-07-31T05:43:56.735Z,96.97
2022-07-31T05:44:56.736Z,97.02
2022-07-31T05:45:56.740Z,96.58
2022-07-31T05:47:40.084Z,96.27
2022-07-31T05:48:36.255Z,96.58
2022-07-31T05:49:36.248Z,96.58
2022-07-31T05:50:36.237Z,96.23
2022-07-31T05:51:36.233Z,96.03
2022-07-31T05:52:36.241Z,95.73
2022-07-31T05:53:36.235Z,94.93
2022-07-31T05:54:36.247Z,95.08
2022-07-31T05:55:36.269Z,95.43
2022-07-31T05:56:36.241Z,94.88
2022-07-31T05:57:36.243Z,94.48
2022-07-31T05:58:36.240Z,94.68
2022-07-31T05:59:36.245Z,94.38
2022-07-31T06:00:36.245Z,94.48
2022-07-31T06:01:36.316Z,94.68
2022-07-31T06:02:36.247Z,94.13
2022-07-31T06:03:52.245Z,94.13
2022-07-31T06:04:36.252Z,94.13
2022-07-31T06:05:36.252Z,94.23
2022-07-31T06:06:36.253Z,94.04
2022-07-31T06:07:36.253Z,94.09
2022-07-31T06:08:36.254Z,94.79
2022-07-31T06:09:36.263Z,93.89
2022-07-31T06:10:36.258Z,94.09
2022-07-31T06:11:36.259Z,94.29
2022-07-31T06:12:36.262Z,92.69
2022-07-31T06:13:36.269Z,92.05
2022-07-31T06:14:36.258Z,92.75
2022-07-31T06:15:36.943Z,92.14
2022-07-31T06:16:36.272Z,91.55
2022-07-31T06:17:43.907Z,90.75
2022-07-31T06:18:36.270Z,90.50
2022-07-31T06:19:36.271Z,88.40
2022-07-31T06:20:37.119Z,89.31
2022-07-31T06:21:36.276Z,89.36
2022-07-31T06:22:36.275Z,89.16
2022-07-31T06:23:36.279Z,88.56
2022-07-31T06:24:36.289Z,88.76
2022-07-31T06:25:39.160Z,89.06
2022-07-31T06:26:36.336Z,89.62
2022-07-31T06:27:36.291Z,89.02
2022-07-31T06:28:47.434Z,88.22
2022-07-31T06:29:41.875Z,87.62
2022-07-31T06:30:36.290Z,87.38
2022-07-31T06:31:36.288Z,85.78
2022-07-31T06:32:36.293Z,84.99
2022-07-31T06:33:37.506Z,84.99
2022-07-31T06:35:39.285Z,84.45
2022-07-31T06:36:41.499Z,84.15
2022-07-31T06:37:38.884Z,83.05
2022-07-31T06:38:38.886Z,82.35
2022-07-31T06:39:55.647Z,81.92
2022-07-31T06:40:38.887Z,83.31
2022-07-31T06:41:38.892Z,81.92
2022-07-31T06:42:38.893Z,81.82
2022-07-31T06:43:38.893Z,82.07
2022-07-31T06:44:45.770Z,82.97
2022-07-31T06:45:51.450Z,81.77
2022-07-31T06:46:49.476Z,81.98
2022-07-31T06:47:38.905Z,82.64
2022-07-31T06:48:38.906Z,83.93
2022-07-31T06:49:38.970Z,82.50
2022-07-31T06:50:38.906Z,82.10
2022-07-31T06:51:38.903Z,81.10
2022-07-31T06:52:38.915Z,81.70
2022-07-31T06:53:38.912Z,80.00
2022-07-31T06:54:38.912Z,81.70
2022-07-31T06:55:43.987Z,80.96
2022-07-31T06:56:38.918Z,81.26
2022-07-31T06:57:38.927Z,80.36
2022-07-31T06:58:38.922Z,80.23
2022-07-31T06:59:39.934Z,81.23
2022-07-31T07:00:39.130Z,81.92
2022-07-31T07:01:38.988Z,81.48
2022-07-31T07:02:38.929Z,80.49
2022-07-31T07:03:38.942Z,79.20
2022-07-31T07:05:04.580Z,79.99
2022-07-31T07:05:41.790Z,80.35
2022-07-31T07:06:38.940Z,81.64
2022-07-31T07:07:38.946Z,80.75
2022-07-31T07:08:38.941Z,81.64
2022-07-31T07:09:38.952Z,80.94
2022-07-31T07:10:38.970Z,80.94
2022-07-31T07:11:38.947Z,80.94
2022-07-31T07:12:38.952Z,81.54
2022-07-31T07:13:45.053Z,79.72
2022-07-31T07:14:38.953Z,80.31
2022-07-31T07:15:38.961Z,80.91
2022-07-31T07:16:38.962Z,79.72
2022-07-31T07:17:38.964Z,79.72
2022-07-31T07:18:38.964Z,79.62
2022-07-31T07:19:38.967Z,80.31
2022-07-31T07:20:38.968Z,80.18
2022-07-31T07:21:38.972Z,80.37
2022-07-31T07:22:38.974Z,79.54
2022-07-31T07:23:38.974Z,80.14
2022-07-31T07:24:38.979Z,80.24
2022-07-31T07:25:38.979Z,80.14
2022-07-31T07:26:38.984Z,78.61
2022-07-31T07:27:39.041Z,78.91
2022-07-31T07:28:38.991Z,77.72
2022-07-31T07:29:38.992Z,77.52
2022-07-31T07:30:38.995Z,77.28
2022-07-31T07:31:38.998Z,77.78
2022-07-31T07:32:39.001Z,78.57
2022-07-31T07:33:41.335Z,80.16
2022-07-31T07:34:39.007Z,78.83
2022-07-31T07:35:39.009Z,77.45
2022-07-31T07:36:39.005Z,77.25
2022-07-31T07:37:39.310Z,77.05
2022-07-31T07:38:39.016Z,77.05
2022-07-31T07:39:39.019Z,76.22
2022-07-31T07:40:39.022Z,76.32
2022-07-31T07:41:39.027Z,76.38
2022-07-31T07:42:39.031Z,77.04
2022-07-31T07:43:39.029Z,75.81
2022-07-31T07:44:39.036Z,75.38
2022-07-31T07:45:39.035Z,74.72
2022-07-31T07:46:39.044Z,71.75
2022-07-31T07:48:04.937Z,71.58
2022-07-31T07:48:39.043Z,69.78
2022-07-31T07:49:39.054Z,68.43
2022-07-31T07:50:39.054Z,67.77
2022-07-31T07:51:59.578Z,66.33
2022-07-31T07:52:43.599Z,66.47
2022-07-31T07:53:39.061Z,64.51
2022-07-31T07:54:39.065Z,62.95
2022-07-31T07:55:39.075Z,62.50
2022-07-31T07:56:39.070Z,61.56
2022-07-31T07:57:39.077Z,60.91
2022-07-31T07:58:39.080Z,60.30
2022-07-31T07:59:39.088Z,58.20
2022-07-31T08:00:39.091Z,59.05
2022-07-31T08:01:39.206Z,59.47
2022-07-31T08:02:39.106Z,57.50
2022-07-31T08:03:50.311Z,55.82
2022-07-31T08:04:39.113Z,55.89
2022-07-31T08:05:39.125Z,56.54
2022-07-31T08:06:39.127Z,55.83
2022-07-31T08:07:42.853Z,55.98
2022-07-31T08:08:39.140Z,54.33
2022-07-31T08:09:39.146Z,53.81
2022-07-31T08:10:39.152Z,52.75
2022-07-31T08:11:39.168Z,53.59
2022-07-31T08:12:39.171Z,54.05
2022-07-31T08:13:39.841Z,52.80
2022-07-31T08:14:39.193Z,52.41
2022-07-31T08:15:39.198Z,53.16
2022-07-31T08:16:39.205Z,52.29
2022-07-31T08:17:39.214Z,52.80
2022-07-31T08:18:39.237Z,52.39
2022-07-31T08:19:39.232Z,52.77
2022-07-31T08:20:39.240Z,52.19
2022-07-31T08:22:39.265Z,51.46
2022-07-31T08:23:39.279Z,52.23
2022-07-31T08:24:39.283Z,53.17
2022-07-31T08:25:39.303Z,51.41
2022-07-31T08:26:39.308Z,52.06
2022-07-31T08:27:40.744Z,51.75
2022-07-31T08:28:39.332Z,51.34
2022-07-31T08:29:39.344Z,49.24
2022-07-31T08:30:39.358Z,49.79
2022-07-31T08:31:39.366Z,49.60
2022-07-31T08:32:39.382Z,49.79
2022-07-31T08:33:39.393Z,50.54
2022-07-31T08:34:42.055Z,51.55
2022-07-31T08:35:39.420Z,49.02
2022-07-31T08:36:39.436Z,47.85
2022-07-31T08:38:01.493Z,47.75
2022-07-31T08:38:39.488Z,47.53
2022-07-31T08:39:39.472Z,47.85
2022-07-31T08:40:42.729Z,47.36
2022-07-31T08:41:39.500Z,46.58
2022-07-31T08:42:39.518Z,48.11
2022-07-31T08:44:03.025Z,47.03
2022-07-31T08:44:39.548Z,47.10
2022-07-31T08:45:40.427Z,45.76
2022-07-31T08:46:39.576Z,47.01
2022-07-31T08:47:39.593Z,45.37
2022-07-31T08:48:39.611Z,47.13
2022-07-31T08:49:39.707Z,46.05
2022-07-31T08:50:39.639Z,46.05
2022-07-31T08:51:52.775Z,46.62
2022-07-31T08:52:39.682Z,47.75
2022-07-31T08:53:39.689Z,47.53
2022-07-31T08:54:39.706Z,47.25
2022-07-31T08:55:55.647Z,45.86
2022-07-31T08:56:39.737Z,45.84
2022-07-31T08:57:39.961Z,45.36
2022-07-31T08:58:40.205Z,44.50
2022-07-31T08:59:39.792Z,45.91
2022-07-31T09:00:39.826Z,45.72
2022-07-31T09:01:39.923Z,44.86
2022-07-31T09:02:39.848Z,44.76
2022-07-31T09:03:39.862Z,45.15
2022-07-31T09:04:39.879Z,45.53
2022-07-31T09:05:42.357Z,45.98
2022-07-31T09:06:39.916Z,43.98
2022-07-31T09:07:39.937Z,43.04
2022-07-31T09:08:39.960Z,44.67
2022-07-31T09:09:51.186Z,44.65
2022-07-31T09:10:39.999Z,43.69
2022-07-31T09:11:40.013Z,44.55
2022-07-31T09:12:40.034Z,44.84
2022-07-31T09:13:40.067Z,44.65
2022-07-31T09:14:40.077Z,46.56
2022-07-31T09:15:40.094Z,43.06
2022-07-31T09:16:40.113Z,45.36
2022-07-31T09:17:40.132Z,43.71
2022-07-31T09:18:40.159Z,44.76
2022-07-31T09:19:54.191Z,45.03
2022-07-31T09:20:40.198Z,44.36
2022-07-31T09:21:40.216Z,44.43
2022-07-31T09:22:40.242Z,45.67
2022-07-31T09:23:40.258Z,44.31
2022-07-31T09:24:40.281Z,43.65
2022-07-31T09:25:40.307Z,43.05
2022-07-31T09:26:40.328Z,42.29
2022-07-31T09:27:40.343Z,42.96
2022-07-31T09:28:40.378Z,42.48
2022-07-31T09:29:40.387Z,42.33
2022-07-31T09:30:56.546Z,43.38
2022-07-31T09:31:40.435Z,42.25
2022-07-31T09:32:40.455Z,41.91
2022-07-31T09:33:45.342Z,42.53
2022-07-31T09:34:40.504Z,43.60
2022-07-31T09:35:41.658Z,43.07
2022-07-31T09:36:40.546Z,44.44
2022-07-31T09:37:40.567Z,44.15
2022-07-31T09:38:40.594Z,45.88
2022-07-31T09:39:51.944Z,44.73
2022-07-31T09:40:55.291Z,45.74
2022-07-31T09:41:57.991Z,43.34
2022-07-31T09:42:44.314Z,43.27
2022-07-31T09:43:51.589Z,43.38
2022-07-31T09:45:48.193Z,44.32
2022-07-31T09:46:40.787Z,44.49
2022-07-31T09:47:40.800Z,43.10
2022-07-31T09:48:40.823Z,43.59
2022-07-31T09:49:41.269Z,43.03
2022-07-31T09:50:40.877Z,44.35
2022-07-31T09:51:40.898Z,42.91
2022-07-31T09:52:40.917Z,43.30
2022-07-31T09:53:43.535Z,44.71
2022-07-31T09:54:40.964Z,42.47
2022-07-31T09:55:41.197Z,43.90
2022-07-31T09:56:41.019Z,44.17
2022-07-31T09:57:41.243Z,43.66
2022-07-31T09:58:41.066Z,41.62
2022-07-31T09:59:41.089Z,41.88
2022-07-31T10:00:41.247Z,40.17
2022-07-31T10:01:41.143Z,40.88
2022-07-31T10:02:41.162Z,42.21
2022-07-31T10:03:41.189Z,41.32
2022-07-31T10:04:41.217Z,42.47
2022-07-31T10:05:41.240Z,42.94
2022-07-31T10:06:41.260Z,42.24
2022-07-31T10:07:41.292Z,42.50
2022-07-31T10:08:41.320Z,41.93
2022-07-31T10:09:41.338Z,41.64
2022-07-31T10:10:41.366Z,41.16
2022-07-31T10:11:41.396Z,43.33
2022-07-31T10:12:41.421Z,41.88
2022-07-31T10:13:42.536Z,41.10
2022-07-31T10:14:41.668Z,40.91
2022-07-31T10:15:41.490Z,41.20
2022-07-31T10:16:41.514Z,40.89
2022-07-31T10:17:41.542Z,42.20
2022-07-31T10:19:41.596Z,42.24
2022-07-31T10:20:41.620Z,40.62
2022-07-31T10:21:41.646Z,39.26
2022-07-31T10:22:41.675Z,39.84
2022-07-31T10:23:42.932Z,39.34
2022-07-31T10:25:41.752Z,38.96
2022-07-31T10:27:11.341Z,38.79
2022-07-31T10:27:41.800Z,38.89
2022-07-31T10:28:41.828Z,38.14
2022-07-31T10:30:42.086Z,40.48
2022-07-31T10:31:42.112Z,40.97
2022-07-31T10:32:42.016Z,40.68
2022-07-31T10:33:44.061Z,42.94
2022-07-31T10:34:41.992Z,39.99
2022-07-31T10:35:42.013Z,39.92
2022-07-31T10:36:42.044Z,41.61
2022-07-31T10:37:42.070Z,40.54
2022-07-31T10:38:42.111Z,39.34
2022-07-31T10:39:42.127Z,40.89
2022-07-31T10:40:43.080Z,40.01
2022-07-31T10:41:42.177Z,39.44
2022-07-31T10:42:42.322Z,39.82
2022-07-31T10:43:42.233Z,38.62
2022-07-31T10:44:42.269Z,40.26
2022-07-31T10:45:42.291Z,39.88
2022-07-31T10:46:42.315Z,39.52
2022-07-31T10:47:48.807Z,40.07
2022-07-31T10:49:42.448Z,41.84
2022-07-31T10:51:42.456Z,40.37
2022-07-31T10:52:42.491Z,40.83
2022-07-31T10:53:51.616Z,40.91
2022-07-31T10:54:42.539Z,41.00
2022-07-31T10:55:42.564Z,41.75
2022-07-31T10:56:42.794Z,40.01
2022-07-31T10:57:56.453Z,40.58
2022-07-31T10:58:42.647Z,41.53
2022-07-31T11:00:42.729Z,43.55
2022-07-31T11:01:42.794Z,41.79
2022-07-31T11:02:42.769Z,44.13
2022-07-31T11:03:42.790Z,41.72
2022-07-31T11:06:02.282Z,42.14
2022-07-31T11:06:42.877Z,39.36
2022-07-31T11:07:43.106Z,38.31
2022-07-31T11:08:42.930Z,38.96
2022-07-31T11:09:50.385Z,38.58
2022-07-31T11:10:42.986Z,40.67
2022-07-31T11:11:43.015Z,38.58
2022-07-31T11:12:43.041Z,37.57
2022-07-31T11:13:43.074Z,37.52
2022-07-31T11:14:43.102Z,39.34
2022-07-31T11:15:43.128Z,39.73
2022-07-31T11:16:43.159Z,39.53
2022-07-31T11:18:22.429Z,40.89
2022-07-31T11:18:43.209Z,40.41
2022-07-31T11:19:43.244Z,40.12
2022-07-31T11:21:43.297Z,40.41
2022-07-31T11:22:43.327Z,39.73
2022-07-31T11:23:56.389Z,39.34
2022-07-31T11:24:43.383Z,40.58
2022-07-31T11:25:43.416Z,39.08
2022-07-31T11:26:43.444Z,39.12
2022-07-31T11:27:43.469Z,40.59
2022-07-31T11:28:43.502Z,42.29
2022-07-31T11:30:01.157Z,42.11
2022-07-31T11:30:43.558Z,41.97
2022-07-31T11:31:43.589Z,41.99
2022-07-31T11:32:44.140Z,43.54
2022-07-31T11:33:43.667Z,42.97
2022-07-31T11:34:43.667Z,41.15
2022-07-31T11:35:43.697Z,43.73
2022-07-31T11:36:43.723Z,42.07
2022-07-31T11:38:44.702Z,40.97
2022-07-31T11:39:51.274Z,42.27
2022-07-31T11:40:43.838Z,41.79
2022-07-31T11:42:43.894Z,42.36
2022-07-31T11:43:44.120Z,40.63
2022-07-31T11:44:44.149Z,42.91
2022-07-31T11:45:43.979Z,41.77
2022-07-31T11:46:44.008Z,41.75
2022-07-31T11:48:11.292Z,40.45
2022-07-31T11:48:45.706Z,42.10
2022-07-31T11:49:48.839Z,41.74
2022-07-31T11:50:44.111Z,41.75
2022-07-31T11:52:44.166Z,43.27
2022-07-31T11:53:44.200Z,42.07
2022-07-31T11:54:44.219Z,44.54
2022-07-31T11:55:44.258Z,44.96
2022-07-31T11:56:44.273Z,45.13
2022-07-31T11:57:52.568Z,45.00
2022-07-31T11:58:44.326Z,45.65
2022-07-31T11:59:45.420Z,46.25
2022-07-31T12:00:44.376Z,49.68
2022-07-31T12:01:44.408Z,48.47
2022-07-31T12:02:44.476Z,46.21
2022-07-31T12:03:44.452Z,46.28
2022-07-31T12:04:44.476Z,45.68
2022-07-31T12:05:44.504Z,44.93
2022-07-31T12:06:44.527Z,46.11
2022-07-31T12:07:44.550Z,46.23
2022-07-31T12:08:44.574Z,45.65
2022-07-31T12:10:02.230Z,45.15
2022-07-31T12:10:44.623Z,45.83
2022-07-31T12:11:44.849Z,46.01
2022-07-31T12:12:44.673Z,45.87
2022-07-31T12:13:44.699Z,44.58
2022-07-31T12:14:44.719Z,45.68
2022-07-31T12:15:44.750Z,43.53
2022-07-31T12:16:44.770Z,43.59
2022-07-31T12:17:44.793Z,43.90
2022-07-31T12:18:44.812Z,42.14
2022-07-31T12:19:44.840Z,43.46
2022-07-31T12:20:44.863Z,42.86
2022-07-31T12:21:44.888Z,41.69
2022-07-31T12:22:44.909Z,40.64
2022-07-31T12:23:44.935Z,40.17
2022-07-31T12:24:44.957Z,40.91
2022-07-31T12:25:44.985Z,40.15
2022-07-31T12:26:45.007Z,39.40
2022-07-31T12:27:45.030Z,41.88
2022-07-31T12:28:45.055Z,40.64
2022-07-31T12:29:45.080Z,40.26
2022-07-31T12:30:45.106Z,41.00
2022-07-31T12:31:45.132Z,40.03
2022-07-31T12:32:45.155Z,41.27
2022-07-31T12:33:45.182Z,39.17
2022-07-31T12:34:45.201Z,40.70
2022-07-31T12:35:55.758Z,40.91
2022-07-31T12:36:45.251Z,39.95
2022-07-31T12:37:45.278Z,38.71
2022-07-31T12:38:48.375Z,39.61
2022-07-31T12:39:54.221Z,41.87
2022-07-31T12:40:45.349Z,41.74
2022-07-31T12:41:45.374Z,43.59
2022-07-31T12:42:45.409Z,41.78
2022-07-31T12:43:52.411Z,42.17
2022-07-31T12:44:45.447Z,42.33
2022-07-31T12:45:45.472Z,43.60
2022-07-31T12:46:45.491Z,42.99
2022-07-31T12:47:45.515Z,43.49
2022-07-31T12:48:46.377Z,44.53
2022-07-31T12:49:45.568Z,44.10
2022-07-31T12:50:45.583Z,44.75
2022-07-31T12:51:47.145Z,46.24
2022-07-31T12:52:45.629Z,44.51
2022-07-31T12:53:45.655Z,44.61
2022-07-31T12:55:45.696Z,46.21
2022-07-31T12:56:45.725Z,46.84
2022-07-31T12:57:51.263Z,46.11
2022-07-31T12:58:45.761Z,46.33
2022-07-31T12:59:45.784Z,46.76
2022-07-31T13:00:45.815Z,47.17
2022-07-31T13:01:46.117Z,47.99
2022-07-31T13:02:45.845Z,47.33
2022-07-31T13:03:46.585Z,48.16
2022-07-31T13:04:45.888Z,47.99
2022-07-31T13:05:49.199Z,47.74
2022-07-31T13:06:46.127Z,49.90
2022-07-31T13:07:45.945Z,49.44
2022-07-31T13:08:46.170Z,50.34
2022-07-31T13:09:45.985Z,50.24
2022-07-31T13:10:46.007Z,51.81
2022-07-31T13:11:48.442Z,53.78
2022-07-31T13:12:46.249Z,52.81
2022-07-31T13:13:46.064Z,52.64
2022-07-31T13:14:46.081Z,51.79
2022-07-31T13:15:46.097Z,53.28
2022-07-31T13:17:19.331Z,53.08
2022-07-31T13:18:46.157Z,53.89
2022-07-31T13:19:46.177Z,55.08
2022-07-31T13:20:46.196Z,54.28
2022-07-31T13:21:48.181Z,53.94
2022-07-31T13:22:46.241Z,54.62
2022-07-31T13:23:46.243Z,55.04
2022-07-31T13:24:46.265Z,53.87